Terminal Aerodrome Forecast
Issued by NWS

Home | Current Version | Previous Version | Text Only | Print | Product List | Glossary On
Versions: 1 2 3 4 5 6 7 8 9 10 11 12 13 14 15 16 17 18 19 20 21 22 23 24 25 26 27 28 29 30 31
000
FTUS41 KBOX 011728
TAFBED
TAF
KBED 011728Z 0118/0218 29009KT P6SM SCT150
     FM012200 32006KT P6SM FEW040 BKN100
     FM020500 02005KT P6SM SCT040 OVC060
     FM020700 02004KT 2SM -SN OVC040
     FM020800 03004KT 1SM -SN OVC040
     FM021200 05007KT 1/4SM +SN OVC015
     FM021500 07012KT 1/4SM +SN OVC008=

USA.gov is the U.S. government's official web portal to all federal, state and local government web resources and services.